createdAt,value
2019-05-01T00:00:20.818Z,91.80
2019-05-01T00:02:51.251Z,92.10
2019-05-01T00:05:21.643Z,92.70
2019-05-01T00:07:50.433Z,92.70
2019-05-01T00:10:21.551Z,93.00
2019-05-01T00:12:50.566Z,93.20
2019-05-01T00:15:22.449Z,93.40
2019-05-01T00:17:51.258Z,93.80
2019-05-01T00:20:20.201Z,93.80
2019-05-01T00:22:49.050Z,94.00
2019-05-01T00:25:17.971Z,94.40
2019-05-01T00:27:46.965Z,94.50
2019-05-01T00:30:29.340Z,94.70
2019-05-01T00:32:48.530Z,94.60
2019-05-01T00:35:17.489Z,94.60
2019-05-01T00:37:46.445Z,94.50
2019-05-01T00:40:16.617Z,94.40
2019-05-01T00:42:45.768Z,94.40
2019-05-01T00:45:15.549Z,94.30
2019-05-01T00:47:44.415Z,94.80
2019-05-01T00:50:15.910Z,94.50
2019-05-01T00:52:44.885Z,94.70
2019-05-01T00:55:15.891Z,94.70
2019-05-01T00:57:46.395Z,94.80
2019-05-01T01:00:16.968Z,95.30
2019-05-01T01:02:47.418Z,95.10
2019-05-01T01:05:17.141Z,95.10
2019-05-01T01:07:45.947Z,95.30
2019-05-01T01:10:15.624Z,95.00
2019-05-01T01:12:44.727Z,95.10
2019-05-01T01:15:14.328Z,95.20
2019-05-01T01:17:43.181Z,95.20
2019-05-01T01:20:12.344Z,95.20
2019-05-01T01:22:41.310Z,95.30
2019-05-01T01:25:10.538Z,95.20
2019-05-01T01:27:39.428Z,95.20
2019-05-01T01:30:09.416Z,95.20
2019-05-01T01:32:39.836Z,95.20
2019-05-01T01:35:09.104Z,95.20
2019-05-01T01:37:38.080Z,95.30
2019-05-01T01:40:08.790Z,95.40
2019-05-01T01:42:38.715Z,95.50
2019-05-01T01:45:08.034Z,95.60
2019-05-01T01:47:38.547Z,95.70
2019-05-01T01:50:08.202Z,95.70
2019-05-01T01:52:37.128Z,95.80
2019-05-01T01:55:06.519Z,95.90
2019-05-01T01:57:37.907Z,95.90
2019-05-01T02:00:09.297Z,95.90
2019-05-01T02:02:39.722Z,96.00
2019-05-01T02:05:10.085Z,96.10
2019-05-01T02:07:39.193Z,96.30
2019-05-01T02:10:09.537Z,96.40
2019-05-01T02:12:39.440Z,96.50
2019-05-01T02:15:08.671Z,96.50
2019-05-01T02:17:39.188Z,96.70
2019-05-01T02:20:08.789Z,96.80
2019-05-01T02:22:37.785Z,96.90
2019-05-01T02:25:08.687Z,96.90
2019-05-01T02:27:40.548Z,97.00
2019-05-01T02:30:11.057Z,97.00
2019-05-01T02:32:42.102Z,97.10
2019-05-01T02:35:11.509Z,97.10
2019-05-01T02:37:40.807Z,97.10
2019-05-01T02:40:12.489Z,97.10
2019-05-01T02:42:42.511Z,97.10
2019-05-01T02:45:11.525Z,97.10
2019-05-01T02:47:43.675Z,97.10
2019-05-01T02:50:14.645Z,97.10
2019-05-01T02:52:44.580Z,97.10
2019-05-01T02:55:15.578Z,97.10
2019-05-01T02:57:45.440Z,97.10
2019-05-01T03:00:15.590Z,97.10
2019-05-01T03:02:44.601Z,97.10
2019-05-01T03:05:13.407Z,97.10
2019-05-01T03:07:43.030Z,97.10
2019-05-01T03:10:12.185Z,97.20
2019-05-01T03:12:43.788Z,97.50
2019-05-01T03:15:13.349Z,97.20
2019-05-01T03:17:46.465Z,97.20
2019-05-01T03:20:16.965Z,97.20
2019-05-01T03:22:47.689Z,97.20
2019-05-01T03:25:16.888Z,97.30
2019-05-01T03:27:45.816Z,97.30
2019-05-01T03:30:15.805Z,97.30
2019-05-01T03:32:44.685Z,97.40
2019-05-01T03:35:13.775Z,97.40
2019-05-01T03:37:42.753Z,97.40
2019-05-01T03:40:12.410Z,97.30
2019-05-01T03:48:28.643Z,97.40
2019-05-01T03:50:59.999Z,97.30
2019-05-01T03:53:29.335Z,97.30
2019-05-01T03:55:58.252Z,97.30
2019-05-01T03:58:27.394Z,97.30
2019-05-01T04:00:57.952Z,97.30
2019-05-01T04:03:28.304Z,97.30
2019-05-01T04:05:57.088Z,97.30
2019-05-01T04:08:25.953Z,97.40
2019-05-01T04:10:55.903Z,97.30
2019-05-01T04:13:25.214Z,97.40
2019-05-01T04:15:54.863Z,97.40
2019-05-01T04:18:24.302Z,97.40
2019-05-01T04:20:53.351Z,97.50
2019-05-01T04:23:22.191Z,97.50
2019-05-01T04:25:50.961Z,97.50
2019-05-01T04:28:21.355Z,97.60
2019-05-01T04:30:52.375Z,97.60
2019-05-01T04:33:21.538Z,97.60
2019-05-01T04:35:52.025Z,97.60
2019-05-01T04:38:20.803Z,97.50
2019-05-01T04:40:49.780Z,97.80
2019-05-01T04:43:18.722Z,97.50
2019-05-01T04:45:48.274Z,97.50
2019-05-01T04:48:18.837Z,97.50
2019-05-01T04:50:48.302Z,97.40
2019-05-01T04:53:18.017Z,97.40
2019-05-01T04:55:47.209Z,97.40
2019-05-01T04:58:16.126Z,97.30
2019-05-01T05:00:44.915Z,97.30
2019-05-01T05:03:15.220Z,97.30
2019-05-01T05:05:44.284Z,97.30
2019-05-01T05:08:13.361Z,97.30
2019-05-01T05:10:42.237Z,97.30
2019-05-01T05:13:11.023Z,97.30
2019-05-01T05:15:42.163Z,97.30
2019-05-01T05:18:10.917Z,97.40
2019-05-01T05:20:40.033Z,97.30
2019-05-01T05:23:08.841Z,97.40
2019-05-01T05:25:38.104Z,97.40
2019-05-01T05:28:11.235Z,97.50
2019-05-01T05:30:42.011Z,97.60
2019-05-01T05:33:18.145Z,97.50
2019-05-01T05:35:43.763Z,97.60
2019-05-01T05:38:15.865Z,97.60
2019-05-01T05:40:45.564Z,97.70
2019-05-01T05:43:14.510Z,97.60
2019-05-01T05:45:43.395Z,97.70
2019-05-01T05:48:12.660Z,97.80
2019-05-01T05:50:46.237Z,97.80
2019-05-01T05:53:19.380Z,97.90
2019-05-01T05:55:52.789Z,98.00
2019-05-01T05:58:25.882Z,98.00
2019-05-01T06:00:58.819Z,98.10
2019-05-01T06:03:34.914Z,98.10
2019-05-01T06:06:05.800Z,98.10
2019-05-01T06:08:37.371Z,98.00
2019-05-01T06:11:07.390Z,98.10
2019-05-01T06:13:38.438Z,98.20
2019-05-01T06:16:12.373Z,98.20
2019-05-01T06:18:40.965Z,98.20
2019-05-01T06:21:13.025Z,98.20
2019-05-01T06:23:44.584Z,98.20
2019-05-01T06:26:14.908Z,98.10
2019-05-01T06:28:43.852Z,98.10
2019-05-01T06:31:17.779Z,98.00
2019-05-01T06:33:48.581Z,97.80
2019-05-01T06:36:15.368Z,97.60
2019-05-01T06:38:44.712Z,97.30
2019-05-01T06:41:14.432Z,97.30
2019-05-01T06:43:43.754Z,97.00
2019-05-01T06:46:13.332Z,96.50
2019-05-01T06:48:48.829Z,96.20
2019-05-01T06:51:18.945Z,95.90
2019-05-01T06:53:48.700Z,95.80
2019-05-01T06:56:17.852Z,95.50
2019-05-01T06:58:51.064Z,95.50
2019-05-01T07:01:18.820Z,95.20
2019-05-01T07:04:02.836Z,95.50
2019-05-01T07:06:18.853Z,95.00
2019-05-01T07:08:47.742Z,94.60
2019-05-01T07:11:16.724Z,94.40
2019-05-01T07:13:47.160Z,94.00
2019-05-01T07:16:15.987Z,93.60
2019-05-01T07:18:44.774Z,93.10
2019-05-01T07:21:13.531Z,92.70
2019-05-01T07:23:42.349Z,92.50
2019-05-01T07:26:13.643Z,92.10
2019-05-01T07:28:43.456Z,92.00
2019-05-01T07:31:13.786Z,91.70
2019-05-01T07:33:47.048Z,91.40
2019-05-01T07:36:16.441Z,91.60
2019-05-01T07:38:45.900Z,91.60
2019-05-01T07:41:14.693Z,91.60
2019-05-01T07:43:45.439Z,91.60
2019-05-01T07:46:18.373Z,91.80
2019-05-01T07:48:46.987Z,91.60
2019-05-01T07:51:16.324Z,92.10
2019-05-01T07:53:45.570Z,91.80
2019-05-01T07:56:17.077Z,92.00
2019-05-01T07:58:47.452Z,91.70
2019-05-01T08:01:18.352Z,91.70
2019-05-01T08:03:47.908Z,91.10
2019-05-01T08:06:21.864Z,90.80
2019-05-01T08:08:47.217Z,90.40
2019-05-01T08:11:16.008Z,89.60
2019-05-01T08:13:44.793Z,87.40
2019-05-01T08:16:13.743Z,87.80
2019-05-01T08:18:44.109Z,87.40
2019-05-01T08:21:14.582Z,87.30
2019-05-01T08:23:47.243Z,87.40
2019-05-01T08:26:13.844Z,86.60
2019-05-01T08:28:44.256Z,85.40
2019-05-01T08:31:14.529Z,86.00
2019-05-01T08:33:49.713Z,87.10
2019-05-01T08:36:15.539Z,88.00
2019-05-01T08:38:44.397Z,85.40
2019-05-01T08:41:13.239Z,83.40
2019-05-01T08:43:42.064Z,82.80
2019-05-01T08:46:16.447Z,83.00
2019-05-01T08:48:44.423Z,81.30
2019-05-01T08:51:13.280Z,79.70
2019-05-01T08:53:42.108Z,79.70
2019-05-01T08:56:10.922Z,79.20
2019-05-01T08:58:39.774Z,77.80
2019-05-01T09:01:10.800Z,77.90
2019-05-01T09:03:39.227Z,78.10
2019-05-01T09:06:08.099Z,77.40
2019-05-01T09:08:36.875Z,77.10
2019-05-01T09:11:05.693Z,75.90
2019-05-01T09:13:34.621Z,75.90
2019-05-01T09:16:03.483Z,76.00
2019-05-01T09:18:32.282Z,73.20
2019-05-01T09:21:01.117Z,71.40
2019-05-01T09:23:29.897Z,72.40
2019-05-01T09:25:59.687Z,71.90
2019-05-01T09:28:30.061Z,70.70
2019-05-01T09:31:02.230Z,69.20
2019-05-01T09:33:32.050Z,67.00
2019-05-01T09:36:00.997Z,69.20
2019-05-01T09:38:29.840Z,69.50
2019-05-01T09:40:58.833Z,69.90
2019-05-01T09:43:30.934Z,68.90
2019-05-01T09:45:58.105Z,69.50
2019-05-01T09:48:26.962Z,68.20
2019-05-01T09:51:00.892Z,67.80
2019-05-01T09:53:29.733Z,67.50
2019-05-01T09:56:03.298Z,67.10
2019-05-01T09:58:31.909Z,67.20
2019-05-01T10:01:00.918Z,65.70
2019-05-01T10:03:29.778Z,65.20
2019-05-01T10:05:58.600Z,62.80
2019-05-01T10:08:27.361Z,63.30
2019-05-01T10:10:59.955Z,64.50
2019-05-01T10:13:26.657Z,63.80
2019-05-01T10:15:55.431Z,64.80
2019-05-01T10:18:24.347Z,64.60
2019-05-01T10:20:53.187Z,63.30
2019-05-01T10:23:22.001Z,63.70
2019-05-01T10:25:52.347Z,63.50
2019-05-01T10:28:22.759Z,62.90
2019-05-01T10:30:53.357Z,60.20
2019-05-01T10:33:23.714Z,59.80
2019-05-01T10:35:53.387Z,58.40
2019-05-01T10:38:22.293Z,57.30
2019-05-01T10:40:51.167Z,55.80
2019-05-01T10:43:19.916Z,54.60
2019-05-01T10:45:48.678Z,53.80
2019-05-01T10:48:17.557Z,53.20
2019-05-01T10:50:46.381Z,53.80
2019-05-01T10:53:15.222Z,51.40
2019-05-01T10:55:44.042Z,51.20
2019-05-01T10:58:17.862Z,50.30
2019-05-01T11:00:44.990Z,49.30
2019-05-01T11:03:13.957Z,49.30
2019-05-01T11:05:55.356Z,49.30
2019-05-01T11:08:14.820Z,49.30
2019-05-01T11:10:43.902Z,47.00
2019-05-01T11:13:12.675Z,47.30
2019-05-01T11:15:41.573Z,46.40
2019-05-01T11:18:10.408Z,43.80
2019-05-01T11:20:39.230Z,42.70
2019-05-01T11:23:08.077Z,39.80
2019-05-01T11:25:36.968Z,41.80
2019-05-01T11:28:05.966Z,40.30
2019-05-01T11:30:34.753Z,37.60
2019-05-01T11:33:05.077Z,35.60
2019-05-01T11:35:35.445Z,31.00
2019-05-01T11:38:05.875Z,28.70
2019-05-01T11:40:36.344Z,27.00
2019-05-01T11:43:05.102Z,26.10
2019-05-01T11:45:33.921Z,23.50
2019-05-01T11:48:02.875Z,25.60
2019-05-01T11:50:31.621Z,24.70
2019-05-01T11:53:00.494Z,19.20
2019-05-01T11:55:29.426Z,17.60
2019-05-01T11:57:58.270Z,16.70
2019-05-01T12:00:27.164Z,18.20
2019-05-01T12:02:55.969Z,18.40
2019-05-01T12:05:24.731Z,17.00
2019-05-01T12:07:53.660Z,18.40
2019-05-01T12:10:22.492Z,15.90
2019-05-01T12:12:51.327Z,14.00
2019-05-01T12:15:20.608Z,11.90
2019-05-01T12:17:50.516Z,11.60
2019-05-01T12:20:20.224Z,11.50
2019-05-01T12:22:51.384Z,10.60
2019-05-01T12:25:19.486Z,9.50
2019-05-01T12:27:48.428Z,9.40
2019-05-01T12:30:18.071Z,8.80
2019-05-01T12:32:46.857Z,7.20
2019-05-01T12:35:16.049Z,7.50
2019-05-01T12:37:44.965Z,6.90
2019-05-01T12:40:15.971Z,5.60
2019-05-01T12:42:44.941Z,5.50
2019-05-01T12:45:14.616Z,6.70
2019-05-01T12:47:45.039Z,7.20
2019-05-01T12:50:14.232Z,7.40
2019-05-01T12:52:43.960Z,7.00
2019-05-01T12:55:14.287Z,6.90
2019-05-01T12:57:43.217Z,8.00
2019-05-01T13:00:15.018Z,7.30
2019-05-01T13:02:43.821Z,6.60
2019-05-01T13:05:12.663Z,6.00
2019-05-01T13:07:41.745Z,6.20
2019-05-01T13:10:11.152Z,6.40
2019-05-01T13:12:39.890Z,6.30
2019-05-01T13:15:09.842Z,7.30
2019-05-01T13:17:38.687Z,6.30
2019-05-01T13:20:09.006Z,6.20
2019-05-01T13:22:37.839Z,6.20
2019-05-01T13:25:07.860Z,7.10
2019-05-01T13:27:38.177Z,6.60
2019-05-01T13:30:11.346Z,7.30
2019-05-01T13:32:41.681Z,5.60
2019-05-01T13:35:10.776Z,6.10
2019-05-01T13:37:39.819Z,6.90
2019-05-01T13:40:12.728Z,7.30
2019-05-01T13:42:41.570Z,9.30
2019-05-01T13:45:10.845Z,8.80
2019-05-01T13:47:39.672Z,7.80
2019-05-01T13:50:09.326Z,9.00
2019-05-01T13:52:38.724Z,9.20
2019-05-01T13:55:08.198Z,10.20
2019-05-01T13:57:37.227Z,9.60
2019-05-01T14:00:08.056Z,9.10
2019-05-01T14:02:36.984Z,9.20
2019-05-01T14:05:06.380Z,13.00
2019-05-01T14:07:35.173Z,15.60
2019-05-01T14:10:04.607Z,15.80
2019-05-01T14:12:33.335Z,17.80
2019-05-01T14:15:02.157Z,17.90
2019-05-01T14:17:30.834Z,16.80
2019-05-01T14:20:01.191Z,16.60
2019-05-01T14:22:31.450Z,17.60
2019-05-01T14:25:01.807Z,17.60
2019-05-01T14:27:30.704Z,17.20
2019-05-01T14:29:59.482Z,17.60
2019-05-01T14:32:28.285Z,17.10
2019-05-01T14:34:57.136Z,17.80
2019-05-01T14:37:29.726Z,19.20
2019-05-01T14:39:56.587Z,19.10
2019-05-01T14:42:25.383Z,18.40
2019-05-01T14:44:54.115Z,18.70
2019-05-01T14:47:22.868Z,17.60
2019-05-01T14:49:51.748Z,17.50
2019-05-01T14:52:20.546Z,16.50
2019-05-01T14:54:49.511Z,16.90
2019-05-01T14:57:18.360Z,17.20
2019-05-01T14:59:47.075Z,16.40
2019-05-01T15:02:15.930Z,17.50
2019-05-01T15:04:44.677Z,18.10
2019-05-01T15:07:13.553Z,17.70
2019-05-01T15:09:42.339Z,17.50
2019-05-01T15:12:11.077Z,16.90
2019-05-01T15:14:40.810Z,17.50
2019-05-01T15:17:11.265Z,18.40
2019-05-01T15:19:41.524Z,19.80
2019-05-01T15:22:10.390Z,19.90
2019-05-01T15:24:39.140Z,19.50
2019-05-01T15:27:07.913Z,18.70
2019-05-01T15:29:37.742Z,18.90
2019-05-01T15:32:06.614Z,18.80
2019-05-01T15:34:35.370Z,19.70
2019-05-01T15:37:07.303Z,18.80
2019-05-01T15:39:37.527Z,18.60
2019-05-01T15:42:07.908Z,19.20
2019-05-01T15:44:38.282Z,19.50
2019-05-01T15:47:07.189Z,18.80
2019-05-01T15:49:36.174Z,19.00
2019-05-01T15:52:05.217Z,20.40
2019-05-01T15:54:34.100Z,19.80
2019-05-01T15:57:02.842Z,18.50
2019-05-01T15:59:31.658Z,19.20
2019-05-01T16:02:00.414Z,19.30
2019-05-01T16:04:29.726Z,18.60
2019-05-01T16:06:58.572Z,17.30
2019-05-01T16:09:27.466Z,16.90
2019-05-01T16:11:57.776Z,18.00
2019-05-01T16:14:26.616Z,17.80
2019-05-01T16:16:55.448Z,18.50
2019-05-01T16:19:24.457Z,19.40
2019-05-01T16:21:53.377Z,19.90
2019-05-01T16:24:22.244Z,20.00
2019-05-01T16:26:51.061Z,19.50
2019-05-01T16:29:19.848Z,19.70
2019-05-01T16:31:48.746Z,19.80
2019-05-01T16:34:17.511Z,20.50
2019-05-01T16:36:46.468Z,19.90
2019-05-01T16:39:15.296Z,20.50
2019-05-01T16:41:45.991Z,20.50
2019-05-01T16:44:15.007Z,20.50
2019-05-01T16:46:43.885Z,21.10
2019-05-01T16:49:12.833Z,21.90
2019-05-01T16:51:41.973Z,21.90
2019-05-01T16:54:11.028Z,22.40
2019-05-01T16:56:39.883Z,21.90
2019-05-01T16:59:08.778Z,22.70
2019-05-01T17:01:39.105Z,24.70
2019-05-01T17:04:09.417Z,25.00
2019-05-01T17:06:39.806Z,25.80
2019-05-01T17:09:11.676Z,25.40
2019-05-01T17:11:40.941Z,26.10
2019-05-01T17:14:09.938Z,27.10
2019-05-01T17:16:38.957Z,28.30
2019-05-01T17:19:08.919Z,28.70
2019-05-01T17:21:37.787Z,27.80
2019-05-01T17:24:06.756Z,27.90
2019-05-01T17:26:35.573Z,28.90
2019-05-01T17:29:04.713Z,28.60
2019-05-01T17:31:33.769Z,28.80
2019-05-01T17:34:02.679Z,28.70
2019-05-01T17:36:31.821Z,29.60
2019-05-01T17:39:00.836Z,29.80
2019-05-01T17:41:35.602Z,29.80
2019-05-01T17:44:04.680Z,30.00
2019-05-01T17:46:33.846Z,30.70
2019-05-01T17:49:04.077Z,31.50
2019-05-01T17:51:33.343Z,32.60
2019-05-01T17:54:02.125Z,33.10
2019-05-01T17:56:31.085Z,33.70
2019-05-01T17:58:59.973Z,34.50
2019-05-01T18:01:33.181Z,34.90
2019-05-01T18:04:02.399Z,35.10
2019-05-01T18:06:32.783Z,36.10
2019-05-01T18:09:03.278Z,37.30
2019-05-01T18:11:32.556Z,38.20
2019-05-01T18:14:01.349Z,39.40
2019-05-01T18:16:30.355Z,39.30
2019-05-01T18:18:59.160Z,40.40
2019-05-01T18:21:28.262Z,41.50
2019-05-01T18:23:58.704Z,42.00
2019-05-01T18:26:31.710Z,43.10
2019-05-01T18:29:05.855Z,43.80
2019-05-01T18:31:33.133Z,44.30
2019-05-01T18:34:04.170Z,44.90
2019-05-01T18:36:34.405Z,45.20
2019-05-01T18:39:15.863Z,46.00
2019-05-01T18:41:36.979Z,47.00
2019-05-01T18:44:10.192Z,47.70
2019-05-01T18:46:36.507Z,48.00
2019-05-01T18:49:05.545Z,48.70
2019-05-01T18:51:36.263Z,48.60
2019-05-01T18:54:05.472Z,48.60
2019-05-01T18:56:38.101Z,50.20
2019-05-01T18:59:05.575Z,50.70
2019-05-01T19:01:34.559Z,51.30
2019-05-01T19:04:03.777Z,52.00
2019-05-01T19:06:41.149Z,52.60
2019-05-01T19:09:14.673Z,53.80
2019-05-01T19:11:36.447Z,54.00
2019-05-01T19:14:05.480Z,53.40
2019-05-01T19:16:34.290Z,53.90
2019-05-01T19:19:04.104Z,54.20
2019-05-01T19:21:33.423Z,54.80
2019-05-01T19:24:02.513Z,55.20
2019-05-01T19:26:33.014Z,55.00
2019-05-01T19:29:01.909Z,55.40
2019-05-01T19:31:30.752Z,55.20
2019-05-01T19:33:59.793Z,55.80
2019-05-01T19:36:40.294Z,56.90
2019-05-01T19:39:11.784Z,57.30
2019-05-01T19:41:43.615Z,57.30
2019-05-01T19:44:13.967Z,57.70
2019-05-01T19:46:42.084Z,58.20
2019-05-01T19:49:11.553Z,58.80
2019-05-01T19:51:40.430Z,59.70
2019-05-01T19:54:09.557Z,60.30
2019-05-01T19:56:38.645Z,60.40
2019-05-01T19:59:07.674Z,61.60
2019-05-01T20:01:38.423Z,63.30
2019-05-01T20:04:08.480Z,64.50
2019-05-01T20:06:39.951Z,65.90
2019-05-01T20:09:09.613Z,66.20
2019-05-01T20:11:38.662Z,67.90
2019-05-01T20:14:07.658Z,68.50
2019-05-01T20:16:36.669Z,69.20
2019-05-01T20:19:07.611Z,69.70
2019-05-01T20:21:36.600Z,70.70
2019-05-01T20:24:09.253Z,71.50
2019-05-01T20:26:36.594Z,73.40
2019-05-01T20:29:07.791Z,74.50
2019-05-01T20:31:36.015Z,74.60
2019-05-01T20:34:11.973Z,75.80
2019-05-01T20:36:53.462Z,76.00
2019-05-01T20:39:19.021Z,76.00
2019-05-01T20:41:48.667Z,77.10
2019-05-01T20:44:23.390Z,77.90
2019-05-01T20:46:58.584Z,78.80
2019-05-01T20:49:28.809Z,79.10
2019-05-01T20:51:57.583Z,79.40
2019-05-01T20:54:26.386Z,80.80
2019-05-01T20:56:56.662Z,81.10
2019-05-01T20:59:25.567Z,81.90
2019-05-01T21:01:54.556Z,82.90
2019-05-01T21:04:26.480Z,83.20
2019-05-01T21:06:56.884Z,83.70
2019-05-01T21:09:29.299Z,84.00
2019-05-01T21:12:05.541Z,84.20
2019-05-01T21:14:31.322Z,84.30
2019-05-01T21:17:13.694Z,84.70
2019-05-01T21:19:45.173Z,85.00
2019-05-01T21:22:14.361Z,86.00
2019-05-01T21:24:53.268Z,86.40
2019-05-01T21:27:24.258Z,87.00
2019-05-01T21:32:46.710Z,87.70
2019-05-01T21:35:15.562Z,86.20
2019-05-01T21:37:44.425Z,85.00
2019-05-01T21:40:14.110Z,85.10
2019-05-01T21:42:42.938Z,84.90
2019-05-01T21:45:12.721Z,84.90
2019-05-01T21:47:42.632Z,84.40
2019-05-01T21:50:13.287Z,84.80
2019-05-01T21:52:43.739Z,84.80
2019-05-01T21:55:12.852Z,83.80
2019-05-01T21:57:42.569Z,82.10
2019-05-01T22:00:11.561Z,80.40
2019-05-01T22:02:41.600Z,80.40
2019-05-01T22:05:11.549Z,79.80
2019-05-01T22:07:41.465Z,79.40
2019-05-01T22:10:11.072Z,79.00
2019-05-01T22:12:44.017Z,78.90
2019-05-01T22:15:12.455Z,79.50
2019-05-01T22:17:42.097Z,79.60
2019-05-01T22:20:12.751Z,80.00
2019-05-01T22:22:44.061Z,79.40
2019-05-01T22:25:15.047Z,79.50
2019-05-01T22:27:45.227Z,80.00
2019-05-01T22:30:16.103Z,80.60
2019-05-01T22:32:46.425Z,80.50
2019-05-01T22:35:17.150Z,81.10
2019-05-01T22:37:46.909Z,82.80
2019-05-01T22:40:17.668Z,82.70
2019-05-01T22:42:46.508Z,83.90
2019-05-01T22:45:18.091Z,84.60
2019-05-01T22:47:50.787Z,84.50
2019-05-01T22:50:17.718Z,84.50
2019-05-01T22:52:46.472Z,84.50
2019-05-01T22:55:20.320Z,84.50
2019-05-01T22:57:47.563Z,84.40
2019-05-01T23:00:20.664Z,84.80
2019-05-01T23:02:49.539Z,85.80
2019-05-01T23:05:18.309Z,86.10
2019-05-01T23:07:47.110Z,86.60
2019-05-01T23:10:16.231Z,87.30
2019-05-01T23:12:44.973Z,86.90
2019-05-01T23:15:15.401Z,87.70
2019-05-01T23:17:46.056Z,88.20
2019-05-01T23:20:16.676Z,88.70
2019-05-01T23:22:45.469Z,89.00
2019-05-01T23:25:14.888Z,89.40
2019-05-01T23:27:43.713Z,89.30
2019-05-01T23:30:15.063Z,89.90
2019-05-01T23:32:44.068Z,90.10
2019-05-01T23:35:13.212Z,90.20
2019-05-01T23:37:41.957Z,90.40
2019-05-01T23:40:15.531Z,90.60
2019-05-01T23:42:51.999Z,90.60
2019-05-01T23:45:15.008Z,90.90
2019-05-01T23:47:43.947Z,90.80
2019-05-01T23:50:13.075Z,91.10
2019-05-01T23:52:41.934Z,91.10
2019-05-01T23:55:10.895Z,91.10
2019-05-01T23:57:39.667Z,91.40
